Time;durP1;ratioP1;P1;durP2;ratioP2;P2;SDS_P1;SDS_P2;PMS_P1;PMS_P2;Temp;Humidity;BMP_temperature;BMP_pressure;BME280_temperature;BME280_humidity;BME280_pressure;Samples;Min_cycle;Max_cycle;Signal;HPM_P1;HPM_P2
2024/01/12 00:00:53;;;;;;;;;;;;;;;;;;6090826;23;20539;-82
2024/01/12 00:03:20;;;;;;;12.93;5.53;;;;;;;;;;6088395;23;19921;-81
2024/01/12 00:05:54;;;;;;;11.45;5.22;;;;;;;;;;6090434;23;20130;-81
2024/01/12 00:08:22;;;;;;;11.47;5.67;;;;;;;;;;6088537;23;20415;-81
2024/01/12 00:11:02;;;;;;;14.68;5.97;;;;;;;;;;6089114;23;20105;-81
2024/01/12 00:13:30;;;;;;;10.88;4.97;;;;;;;;;;6089208;23;20026;-82
2024/01/12 00:16:05;;;;;;;9.18;5.32;;;;;;;;;;6090415;23;20089;-82
2024/01/12 00:18:32;;;;;;;12.65;5.80;;;;;;;;;;6091151;23;20102;-82
2024/01/12 00:21:00;;;;;;;11.68;5.05;;;;;;;;;;6090498;23;20037;-82
2024/01/12 00:23:34;;;;;;;9.40;5.38;;;;;;;;;;6089209;23;20523;-81
2024/01/12 00:26:01;;;;;;;11.05;6.00;;;;;;;;;;6089995;23;20025;-81
2024/01/12 00:28:35;;;;;;;12.07;5.80;;;;;;;;;;6090855;23;20030;-81
2024/01/12 00:31:02;;;;;;;12.20;5.57;;;;;;;;;;6087073;23;20034;-82
2024/01/12 00:33:30;;;;;;;12.32;5.97;;;;;;;;;;6090447;23;20026;-80
2024/01/12 00:36:04;;;;;;;12.23;5.38;;;;;;;;;;6089732;23;20401;-80
2024/01/12 00:38:31;;;;;;;;;;;;;;;;;;6090457;23;20026;-80
2024/01/12 00:40:58;;;;;;;10.25;4.95;;;;;;;;;;6089800;23;19921;-81
2024/01/12 00:43:32;;;;;;;9.77;5.22;;;;;;;;;;6088611;23;20452;-82
2024/01/12 00:45:59;;;;;;;11.52;5.30;;;;;;;;;;6088147;23;20125;-81
2024/01/12 00:48:33;;;;;;;11.48;5.00;;;;;;;;;;6090353;23;20026;-82
2024/01/12 00:51:00;;;;;;;;;;;;;;;;;;6091037;23;20050;-82
2024/01/12 00:53:28;;;;;;;11.43;4.93;;;;;;;;;;6089138;23;19923;-82
2024/01/12 00:56:02;;;;;;;10.38;4.97;;;;;;;;;;6090791;23;20032;-82
2024/01/12 00:58:29;;;;;;;9.70;4.95;;;;;;;;;;6088484;23;20030;-82
2024/01/12 01:00:56;;;;;;;14.27;5.38;;;;;;;;;;6091321;23;20026;-81
2024/01/12 01:03:30;;;;;;;11.02;5.43;;;;;;;;;;6092936;23;20054;-82
2024/01/12 01:05:57;;;;;;;;;;;;;;;;;;6092579;23;20078;-81
2024/01/12 01:08:38;;;;;;;11.25;5.78;;;;;;;;;;6092364;23;20307;-81
2024/01/12 01:11:11;;;;;;;10.57;5.90;;;;;;;;;;6090521;23;20511;-81
2024/01/12 01:13:46;;;;;;;10.30;5.47;;;;;;;;;;6092491;23;20033;-81
2024/01/12 01:16:13;;;;;;;9.30;5.18;;;;;;;;;;6087979;23;20029;-81
2024/01/12 01:18:41;;;;;;;;;;;;;;;;;;6089975;23;20057;-81
2024/01/12 01:21:15;;;;;;;11.13;5.47;;;;;;;;;;6089162;23;19921;-81
2024/01/12 01:23:42;;;;;;;;;;;;;;;;;;6091649;23;20477;-82
2024/01/12 01:26:16;;;;;;;10.73;5.00;;;;;;;;;;6090020;23;19924;-81
2024/01/12 01:28:43;;;;;;;11.93;6.37;;;;;;;;;;6091692;23;20056;-81
2024/01/12 01:31:11;;;;;;;12.73;6.00;;;;;;;;;;6090596;23;20033;-81
2024/01/12 01:33:45;;;;;;;12.53;5.60;;;;;;;;;;6090082;23;20046;-81
2024/01/12 01:36:12;;;;;;;13.70;6.17;;;;;;;;;;6088295;23;20027;-81
2024/01/12 01:38:40;;;;;;;11.57;5.65;;;;;;;;;;6090616;23;20026;-81
2024/01/12 01:41:14;;;;;;;10.77;6.03;;;;;;;;;;6090847;23;20078;-81
2024/01/12 01:43:41;;;;;;;16.40;5.57;;;;;;;;;;6090917;23;20030;-81
2024/01/12 01:46:15;;;;;;;12.33;5.50;;;;;;;;;;6092521;23;20041;-81
2024/01/12 01:48:42;;;;;;;;;;;;;;;;;;6091293;23;20026;-81
2024/01/12 01:51:09;;;;;;;11.00;5.27;;;;;;;;;;6091326;23;19921;-81
2024/01/12 01:53:43;;;;;;;11.87;5.33;;;;;;;;;;6088646;23;20081;-82
2024/01/12 01:56:12;;;;;;;10.10;5.20;;;;;;;;;;6090547;23;20022;-81
2024/01/12 01:58:39;;;;;;;10.27;5.23;;;;;;;;;;6089741;23;20109;-81
2024/01/12 02:01:14;;;;;;;13.30;4.90;;;;;;;;;;6089099;23;20069;-81
2024/01/12 02:03:41;;;;;;;10.87;4.97;;;;;;;;;;6091412;23;20368;-81
2024/01/12 02:06:16;;;;;;;11.13;5.50;;;;;;;;;;6089996;23;20483;-81
2024/01/12 02:08:57;;;;;;;11.97;4.77;;;;;;;;;;6086141;23;20492;-82
2024/01/12 02:11:31;;;;;;;9.50;4.70;;;;;;;;;;6090827;23;20464;-82
2024/01/12 02:14:07;;;;;;;10.57;4.73;;;;;;;;;;6090375;23;20030;-82
2024/01/12 02:16:37;;;;;;;12.90;5.60;;;;;;;;;;6090269;23;20057;-82
2024/01/12 02:19:05;;;;;;;9.47;4.87;;;;;;;;;;6091646;23;20114;-82
2024/01/12 02:21:39;;;;;;;11.60;5.53;;;;;;;;;;6090631;23;20022;-82
2024/01/12 02:24:06;;;;;;;;;;;;;;;;;;6090932;23;20030;-82
2024/01/12 02:26:40;;;;;;;10.93;5.07;;;;;;;;;;6089746;23;20553;-82
2024/01/12 02:29:07;;;;;;;13.97;5.20;;;;;;;;;;6091867;23;20022;-82
2024/01/12 02:31:34;;;;;;;;;;;;;;;;;;6091080;23;20050;-83
2024/01/12 02:34:08;;;;;;;8.70;5.07;;;;;;;;;;6091235;23;19964;-82
2024/01/12 02:36:35;;;;;;;10.57;5.23;;;;;;;;;;6090896;23;20138;-82
2024/01/12 02:39:15;;;;;;;10.40;4.73;;;;;;;;;;6090421;23;20026;-81
2024/01/12 02:41:43;;;;;;;9.60;4.90;;;;;;;;;;6089809;23;20683;-81
2024/01/12 02:44:17;;;;;;;11.70;5.23;;;;;;;;;;6090698;23;20472;-80
2024/01/12 02:46:51;;;;;;;9.93;5.27;;;;;;;;;;6090887;23;20026;-81
2024/01/12 02:49:24;;;;;;;9.57;5.43;;;;;;;;;;6089589;23;20487;-80
2024/01/12 02:51:59;;;;;;;10.47;4.80;;;;;;;;;;6088145;23;20026;-80
2024/01/12 02:54:26;;;;;;;;;;;;;;;;;;6091473;23;20757;-81
2024/01/12 02:56:53;;;;;;;11.93;5.13;;;;;;;;;;6090693;23;19985;-81
2024/01/12 02:59:27;;;;;;;8.93;4.57;;;;;;;;;;6090304;23;20030;-81
2024/01/12 03:01:54;;;;;;;;;;;;;;;;;;6092579;23;20029;-81
2024/01/12 03:04:21;;;;;;;9.50;4.27;;;;;;;;;;6090455;23;19968;-79
2024/01/12 03:06:55;;;;;;;12.10;4.77;;;;;;;;;;6092372;23;20019;-80
2024/01/12 03:09:29;;;;;;;;;;;;;;;;;;6091364;23;20022;-81
2024/01/12 03:12:10;;;;;;;9.53;4.53;;;;;;;;;;6091896;23;19917;-81
2024/01/12 03:14:37;;;;;;;11.73;4.87;;;;;;;;;;6089050;23;20030;-80
2024/01/12 03:17:11;;;;;;;9.73;4.77;;;;;;;;;;6092071;23;20030;-81
2024/01/12 03:19:38;;;;;;;10.77;5.13;;;;;;;;;;6090645;23;20045;-80
2024/01/12 03:22:05;;;;;;;10.73;4.75;;;;;;;;;;6087889;23;20500;-80
2024/01/12 03:24:39;;;;;;;13.07;5.87;;;;;;;;;;6090973;23;20034;-80
2024/01/12 03:27:06;;;;;;;9.07;4.47;;;;;;;;;;6090010;23;20026;-81
2024/01/12 03:29:34;;;;;;;10.17;4.83;;;;;;;;;;6090561;23;20029;-80
2024/01/12 03:32:08;;;;;;;10.87;4.53;;;;;;;;;;6089843;23;20030;-81
2024/01/12 03:34:35;;;;;;;8.40;4.70;;;;;;;;;;6090072;23;20102;-81
2024/01/12 03:37:09;;;;;;;9.90;4.87;;;;;;;;;;6090419;23;20356;-80
2024/01/12 03:39:36;;;;;;;10.20;4.57;;;;;;;;;;6089947;23;20026;-81
2024/01/12 03:42:11;;;;;;;13.67;5.93;;;;;;;;;;6090456;23;20034;-80
2024/01/12 03:44:45;;;;;;;17.37;6.00;;;;;;;;;;6090705;23;20082;-80
2024/01/12 03:47:19;;;;;;;13.60;6.10;;;;;;;;;;6089371;23;20026;-81
2024/01/12 03:49:46;;;;;;;12.77;5.77;;;;;;;;;;6088873;23;20468;-81
2024/01/12 03:52:13;;;;;;;;;;;;;;;;;;6090469;23;20109;-80
2024/01/12 03:54:47;;;;;;;11.20;5.17;;;;;;;;;;6087270;23;19928;-81
2024/01/12 03:57:14;;;;;;;;;;;;;;;;;;6089047;23;20033;-80
2024/01/12 03:59:41;;;;;;;10.07;4.60;;;;;;;;;;6090648;23;19921;-81
2024/01/12 04:02:15;;;;;;;8.07;4.40;;;;;;;;;;6090491;23;20026;-80
2024/01/12 04:04:42;;;;;;;14.63;5.13;;;;;;;;;;6087624;23;20037;-80
2024/01/12 04:07:10;;;;;;;9.00;4.93;;;;;;;;;;6089732;23;20400;-80
2024/01/12 04:09:57;;;;;;;9.57;4.47;;;;;;;;;;6089140;23;20023;-80
2024/01/12 04:12:31;;;;;;;9.43;4.35;;;;;;;;;;6089603;23;20101;-80
2024/01/12 04:15:07;;;;;;;11.67;5.03;;;;;;;;;;6088340;23;20033;-80
2024/01/12 04:17:41;;;;;;;13.27;5.17;;;;;;;;;;6089895;23;20396;-80
2024/01/12 04:20:15;;;;;;;11.20;5.03;;;;;;;;;;6090828;23;20105;-80
2024/01/12 04:22:42;;;;;;;10.37;5.03;;;;;;;;;;6090554;23;20022;-80
2024/01/12 04:25:09;;;;;;;;;;;;;;;;;;6089513;23;20023;-80
2024/01/12 04:27:43;;;;;;;10.17;5.03;;;;;;;;;;6089254;23;20354;-80
2024/01/12 04:30:10;;;;;;;7.93;4.70;;;;;;;;;;6086921;23;20427;-80
2024/01/12 04:32:44;;;;;;;12.13;5.03;;;;;;;;;;6087088;23;20082;-79
2024/01/12 04:35:12;;;;;;;11.50;4.97;;;;;;;;;;6087676;23;20423;-79
2024/01/12 04:37:39;;;;;;;10.17;5.00;;;;;;;;;;6090694;23;20031;-79
2024/01/12 04:40:13;;;;;;;8.47;4.67;;;;;;;;;;6087154;23;20022;-80
2024/01/12 04:42:40;;;;;;;9.13;4.87;;;;;;;;;;6087624;23;20141;-79
2024/01/12 04:45:14;;;;;;;10.80;4.97;;;;;;;;;;6089080;23;20082;-80
2024/01/12 04:47:41;;;;;;;;;;;;;;;;;;6090548;23;20026;-80
2024/01/12 04:50:08;;;;;;;9.90;4.60;;;;;;;;;;6087258;23;20370;-80
2024/01/12 04:52:42;;;;;;;11.00;4.83;;;;;;;;;;6089820;23;20030;-80
2024/01/12 04:55:09;;;;;;;9.77;4.70;;;;;;;;;;6087294;23;20085;-79
2024/01/12 04:57:43;;;;;;;10.70;4.67;;;;;;;;;;6086852;23;20078;-80
2024/01/12 05:00:11;;;;;;;9.17;4.40;;;;;;;;;;6087689;23;20027;-80
2024/01/12 05:02:38;;;;;;;9.27;4.50;;;;;;;;;;6090727;23;20110;-80
2024/01/12 05:05:12;;;;;;;10.50;4.50;;;;;;;;;;6088509;23;20022;-80
2024/01/12 05:07:39;;;;;;;;;;;;;;;;;;6091830;23;20034;-80
2024/01/12 05:10:06;;;;;;;9.47;4.93;;;;;;;;;;6091115;23;19992;-80
2024/01/12 05:12:41;;;;;;;8.63;4.70;;;;;;;;;;6088506;23;20026;-80
2024/01/12 05:15:08;;;;;;;9.37;4.97;;;;;;;;;;6091159;23;20492;-80
2024/01/12 05:17:42;;;;;;;8.53;4.53;;;;;;;;;;6090943;23;20039;-80
2024/01/12 05:20:09;;;;;;;9.00;4.63;;;;;;;;;;6089081;23;20078;-80
2024/01/12 05:22:37;;;;;;;7.70;4.87;;;;;;;;;;6086580;23;20027;-80
2024/01/12 05:25:11;;;;;;;12.43;5.93;;;;;;;;;;6088192;23;20032;-80
2024/01/12 05:27:38;;;;;;;;;;;;;;;;;;6090164;23;20026;-80
2024/01/12 05:30:06;;;;;;;9.50;4.60;;;;;;;;;;6084066;23;20174;-80
2024/01/12 05:32:40;;;;;;;14.13;5.17;;;;;;;;;;6088997;23;20038;-80
2024/01/12 05:35:08;;;;;;;9.23;4.50;;;;;;;;;;6087654;23;20023;-80
2024/01/12 05:37:42;;;;;;;11.53;4.83;;;;;;;;;;6090213;23;20055;-81
2024/01/12 05:40:10;;;;;;;15.47;5.03;;;;;;;;;;6089024;23;20110;-80
2024/01/12 05:42:37;;;;;;;11.60;4.50;;;;;;;;;;6090437;23;20554;-80
2024/01/12 05:45:11;;;;;;;9.40;5.13;;;;;;;;;;6091769;23;20041;-80
2024/01/12 05:47:38;;;;;;;;;;;;;;;;;;6087551;23;20022;-80
2024/01/12 05:50:12;;;;;;;8.67;4.50;;;;;;;;;;6087823;23;20486;-80
2024/01/12 05:52:39;;;;;;;;;;;;;;;;;;6089041;23;20085;-79
2024/01/12 05:55:07;;;;;;;9.93;4.67;;;;;;;;;;6088621;23;20004;-80
2024/01/12 05:57:41;;;;;;;10.57;4.80;;;;;;;;;;6089609;23;20027;-80
2024/01/12 06:00:09;;;;;;;;;;;;;;;;;;6087781;23;20030;-81
2024/01/12 06:02:43;;;;;;;11.90;4.63;;;;;;;;;;6089457;23;19917;-79
2024/01/12 06:05:10;;;;;;;12.30;5.47;;;;;;;;;;6090980;23;20030;-81
2024/01/12 06:07:38;;;;;;;;;;;;;;;;;;6090878;23;20464;-80
2024/01/12 06:10:19;;;;;;;10.93;4.70;;;;;;;;;;6089581;23;20263;-80
2024/01/12 06:12:46;;;;;;;8.70;4.60;;;;;;;;;;6090561;23;20456;-80
2024/01/12 06:15:20;;;;;;;13.50;4.87;;;;;;;;;;6091431;23;20030;-80
2024/01/12 06:17:48;;;;;;;12.83;5.20;;;;;;;;;;6089832;23;20368;-80
2024/01/12 06:20:16;;;;;;;9.07;4.67;;;;;;;;;;6090934;23;20077;-80
2024/01/12 06:22:50;;;;;;;8.67;4.97;;;;;;;;;;6092056;23;20133;-80
2024/01/12 06:25:18;;;;;;;9.10;5.23;;;;;;;;;;6090982;23;20052;-80
2024/01/12 06:27:52;;;;;;;11.63;5.50;;;;;;;;;;6089987;23;20026;-80
2024/01/12 06:30:19;;;;;;;;;;;;;;;;;;6092146;23;20030;-80
2024/01/12 06:32:46;;;;;;;10.53;5.00;;;;;;;;;;6090673;23;19918;-80
2024/01/12 06:35:20;;;;;;;9.23;4.70;;;;;;;;;;6088987;23;20026;-80
2024/01/12 06:37:47;;;;;;;8.97;4.93;;;;;;;;;;6091458;23;20061;-80
2024/01/12 06:40:21;;;;;;;11.37;4.93;;;;;;;;;;6089441;23;20468;-80
2024/01/12 06:42:48;;;;;;;;;;;;;;;;;;6093053;23;20041;-80
2024/01/12 06:45:15;;;;;;;7.93;4.50;;;;;;;;;;6090824;23;20343;-80
2024/01/12 06:47:49;;;;;;;10.37;4.90;;;;;;;;;;6091345;23;20322;-80
2024/01/12 06:50:17;;;;;;;13.00;5.00;;;;;;;;;;6089863;23;20030;-80
2024/01/12 06:52:44;;;;;;;9.30;4.70;;;;;;;;;;6089326;23;20515;-80
2024/01/12 06:55:18;;;;;;;12.23;5.73;;;;;;;;;;6090091;23;20030;-80
2024/01/12 06:57:47;;;;;;;14.40;5.33;;;;;;;;;;6091675;23;20547;-81
2024/01/12 07:00:21;;;;;;;10.73;5.23;;;;;;;;;;6090484;23;20470;-80
2024/01/12 07:02:48;;;;;;;11.60;5.40;;;;;;;;;;6091424;23;20465;-80
2024/01/12 07:05:16;;;;;;;13.70;6.03;;;;;;;;;;6090832;23;20022;-80
2024/01/12 07:07:50;;;;;;;11.17;5.30;;;;;;;;;;6090544;23;20703;-80
2024/01/12 07:10:17;;;;;;;14.80;5.60;;;;;;;;;;6088620;23;20424;-80
2024/01/12 07:12:51;;;;;;;9.93;4.53;;;;;;;;;;6090110;23;20030;-80
2024/01/12 07:15:20;;;;;;;11.13;5.33;;;;;;;;;;6091237;23;20512;-80
2024/01/12 07:17:51;;;;;;;9.20;4.73;;;;;;;;;;6092598;23;20066;-81
2024/01/12 07:20:25;;;;;;;;;;;;;;;;;;6092341;23;20125;-80
2024/01/12 07:22:59;;;;;;;9.40;4.57;;;;;;;;;;6092523;23;19918;-80
2024/01/12 07:25:33;;;;;;;9.53;4.60;;;;;;;;;;6091550;23;20117;-80
2024/01/12 07:28:07;;;;;;;8.77;4.17;;;;;;;;;;6091469;23;20491;-80
2024/01/12 07:30:36;;;;;;;11.23;4.90;;;;;;;;;;6090957;23;20026;-80
2024/01/12 07:33:03;;;;;;;6.60;4.13;;;;;;;;;;6091265;23;20058;-80
2024/01/12 07:35:37;;;;;;;10.03;4.50;;;;;;;;;;6090142;23;20352;-80
2024/01/12 07:38:04;;;;;;;10.03;4.40;;;;;;;;;;6091464;23;20023;-80
2024/01/12 07:40:32;;;;;;;;;;;;;;;;;;6090137;23;20026;-80
2024/01/12 07:43:06;;;;;;;15.90;4.90;;;;;;;;;;6087524;23;19969;-80
2024/01/12 07:45:33;;;;;;;10.63;4.43;;;;;;;;;;6088574;23;20333;-80
2024/01/12 07:48:10;;;;;;;8.87;4.70;;;;;;;;;;6090584;23;20030;-81
2024/01/12 07:50:38;;;;;;;10.17;4.63;;;;;;;;;;6090375;23;20105;-80
2024/01/12 07:53:05;;;;;;;9.33;4.93;;;;;;;;;;6086821;23;20337;-80
2024/01/12 07:55:39;;;;;;;9.20;4.50;;;;;;;;;;6090323;23;20026;-80
2024/01/12 07:58:06;;;;;;;11.43;4.63;;;;;;;;;;6091371;23;20481;-80
2024/01/12 08:00:40;;;;;;;11.03;4.33;;;;;;;;;;6089479;23;20022;-80
2024/01/12 08:03:07;;;;;;;9.57;4.87;;;;;;;;;;6089395;23;20144;-80
2024/01/12 08:05:35;;;;;;;8.17;4.63;;;;;;;;;;6089742;23;20464;-82
2024/01/12 08:08:10;;;;;;;6.93;4.23;;;;;;;;;;6091094;23;20026;-81
2024/01/12 08:10:44;;;;;;;8.37;4.70;;;;;;;;;;6086957;23;20109;-80
2024/01/12 08:13:18;;;;;;;8.83;4.20;;;;;;;;;;6090431;23;20074;-82
2024/01/12 08:15:45;;;;;;;6.27;3.83;;;;;;;;;;6089902;23;20022;-82
2024/01/12 08:18:13;;;;;;;10.60;5.03;;;;;;;;;;6089536;23;20105;-80
2024/01/12 08:20:48;;;;;;;8.93;4.27;;;;;;;;;;6089139;23;20522;-80
2024/01/12 08:23:15;;;;;;;8.97;5.00;;;;;;;;;;6086848;23;20049;-82
2024/01/12 08:25:42;;;;;;;7.80;4.20;;;;;;;;;;6089275;23;20045;-81
2024/01/12 08:28:16;;;;;;;8.90;3.53;;;;;;;;;;6089234;23;20026;-81
2024/01/12 08:30:44;;;;;;;6.13;4.20;;;;;;;;;;6088495;23;20026;-81
2024/01/12 08:33:18;;;;;;;7.27;4.40;;;;;;;;;;6089430;23;20672;-81
2024/01/12 08:35:46;;;;;;;7.93;4.03;;;;;;;;;;6088327;23;20026;-82
2024/01/12 08:38:13;;;;;;;12.03;4.43;;;;;;;;;;6089198;23;20061;-82
2024/01/12 08:40:47;;;;;;;8.60;4.47;;;;;;;;;;6088813;23;20022;-82
2024/01/12 08:43:16;;;;;;;8.33;4.67;;;;;;;;;;6090319;23;20050;-80
2024/01/12 08:45:50;;;;;;;15.00;5.47;;;;;;;;;;6089723;23;20031;-82
2024/01/12 08:48:19;;;;;;;8.53;4.20;;;;;;;;;;6089984;23;20049;-81
2024/01/12 08:50:47;;;;;;;9.43;4.77;;;;;;;;;;6088994;23;20575;-82
2024/01/12 08:53:21;;;;;;;7.60;3.93;;;;;;;;;;6089478;23;20344;-82
2024/01/12 08:55:48;;;;;;;12.90;4.37;;;;;;;;;;6088520;23;20023;-82
2024/01/12 08:58:16;;;;;;;;;;;;;;;;;;6090583;23;20027;-81
2024/01/12 09:00:50;;;;;;;9.60;4.33;;;;;;;;;;6089864;23;20331;-82
2024/01/12 09:03:17;;;;;;;6.67;3.87;;;;;;;;;;6089904;23;20053;-82
2024/01/12 09:05:44;;;;;;;;;;;;;;;;;;6090052;23;20026;-81
2024/01/12 09:08:21;;;;;;;8.50;3.87;;;;;;;;;;6089681;23;19967;-81
2024/01/12 09:10:48;;;;;;;10.10;4.80;;;;;;;;;;6088815;23;20030;-81
2024/01/12 09:13:22;;;;;;;10.13;4.20;;;;;;;;;;6092054;23;20061;-81
2024/01/12 09:15:49;;;;;;;9.17;3.80;;;;;;;;;;6090434;23;20093;-82
2024/01/12 09:18:17;;;;;;;8.15;4.20;;;;;;;;;;6092541;23;20030;-82
2024/01/12 09:20:50;;;;;;;7.70;4.37;;;;;;;;;;6087413;23;20464;-82
2024/01/12 09:23:18;;;;;;;7.93;3.90;;;;;;;;;;6092600;23;20085;-81
2024/01/12 09:25:53;;;;;;;9.20;4.03;;;;;;;;;;6090522;23;20026;-82
2024/01/12 09:28:22;;;;;;;8.23;4.60;;;;;;;;;;6091964;23;20061;-82
2024/01/12 09:30:49;;;;;;;10.70;4.27;;;;;;;;;;6090421;23;20030;-82
2024/01/12 09:33:23;;;;;;;8.13;4.10;;;;;;;;;;6091661;23;20101;-82
2024/01/12 09:35:50;;;;;;;9.97;4.87;;;;;;;;;;6090326;23;20026;-82
2024/01/12 09:38:24;;;;;;;12.57;4.13;;;;;;;;;;6089013;23;20026;-81
2024/01/12 09:40:51;;;;;;;;;;;;;;;;;;6091448;23;20409;-81
2024/01/12 09:43:20;;;;;;;8.37;4.37;;;;;;;;;;6091166;23;19921;-81
2024/01/12 09:45:57;;;;;;;8.30;4.27;;;;;;;;;;6090062;23;20610;-82
2024/01/12 09:48:28;;;;;;;9.48;4.50;;;;;;;;;;6089224;23;20026;-82
2024/01/12 09:51:04;;;;;;;8.20;4.50;;;;;;;;;;6089786;23;20022;-81
2024/01/12 09:53:31;;;;;;;9.23;4.40;;;;;;;;;;6091593;23;20022;-82
2024/01/12 09:56:05;;;;;;;7.97;4.27;;;;;;;;;;6089327;23;20048;-82
2024/01/12 09:58:38;;;;;;;7.60;4.25;;;;;;;;;;6090856;23;20097;-81
2024/01/12 10:01:15;;;;;;;7.80;4.20;;;;;;;;;;6088185;23;20105;-82
2024/01/12 10:03:43;;;;;;;10.68;4.30;;;;;;;;;;6092282;23;20073;-81
2024/01/12 10:06:11;;;;;;;7.18;3.63;;;;;;;;;;6090247;23;20023;-81
2024/01/12 10:08:47;;;;;;;9.10;4.27;;;;;;;;;;6090464;23;20032;-81
2024/01/12 10:11:20;;;;;;;10.02;4.22;;;;;;;;;;6090271;23;20085;-81
2024/01/12 10:13:54;;;;;;;8.20;3.95;;;;;;;;;;6090176;23;20668;-82
2024/01/12 10:16:27;;;;;;;;;;;;;;;;;;6090804;23;20467;-81
2024/01/12 10:19:01;;;;;;;;;;;;;;;;;;6088312;23;19972;-79
2024/01/12 10:21:41;;;;;;;8.70;3.88;;;;;;;;;;6089145;23;19956;-79
2024/01/12 10:24:09;;;;;;;8.65;3.97;;;;;;;;;;6091273;23;20464;-78
2024/01/12 10:26:43;;;;;;;6.70;3.67;;;;;;;;;;6089036;23;20018;-79
2024/01/12 10:29:11;;;;;;;7.55;3.85;;;;;;;;;;6090369;23;20030;-79
2024/01/12 10:31:42;;;;;;;5.72;3.75;;;;;;;;;;6090609;23;20081;-79
2024/01/12 10:34:16;;;;;;;9.05;4.45;;;;;;;;;;6090436;23;20030;-79
2024/01/12 10:36:46;;;;;;;10.27;4.10;;;;;;;;;;6089999;23;20022;-79
2024/01/12 10:39:21;;;;;;;8.30;4.85;;;;;;;;;;6090684;23;20404;-79
2024/01/12 10:41:49;;;;;;;10.70;4.15;;;;;;;;;;6091116;23;20030;-79
2024/01/12 10:44:19;;;;;;;8.50;4.07;;;;;;;;;;6090763;23;20097;-78
2024/01/12 10:46:57;;;;;;;11.75;4.60;;;;;;;;;;6090823;23;20339;-79
2024/01/12 10:49:26;;;;;;;9.27;4.47;;;;;;;;;;6088835;23;20094;-79
2024/01/12 10:52:21;;;;;;;8.80;4.45;;;;;;;;;;6090083;23;20030;-79
2024/01/12 10:54:54;;;;;;;8.23;4.38;;;;;;;;;;6089703;23;20042;-79
2024/01/12 10:57:30;;;;;;;13.48;4.53;;;;;;;;;;6089573;23;20026;-79
2024/01/12 10:59:58;;;;;;;9.48;4.60;;;;;;;;;;6089048;23;20026;-79
2024/01/12 11:02:26;;;;;;;10.25;4.22;;;;;;;;;;6090317;23;20057;-79
2024/01/12 11:05:00;;;;;;;8.43;4.53;;;;;;;;;;6091050;23;20081;-79
2024/01/12 11:07:28;;;;;;;6.63;3.90;;;;;;;;;;6089120;23;20019;-78
2024/01/12 11:10:10;;;;;;;10.35;4.50;;;;;;;;;;6089716;23;20026;-79
2024/01/12 11:12:44;;;;;;;22.63;5.43;;;;;;;;;;6088842;23;20420;-79
2024/01/12 11:15:23;;;;;;;10.13;4.03;;;;;;;;;;6089676;23;20282;-79
2024/01/12 11:17:50;;;;;;;10.27;4.30;;;;;;;;;;6089146;23;20022;-79
2024/01/12 11:20:24;;;;;;;9.35;4.20;;;;;;;;;;6091058;23;20027;-79
2024/01/12 11:22:52;;;;;;;;;;;;;;;;;;6090656;23;20022;-79
2024/01/12 11:25:19;;;;;;;6.85;3.92;;;;;;;;;;6091425;23;19929;-79
2024/01/12 11:27:55;;;;;;;10.50;4.15;;;;;;;;;;6090900;23;20031;-79
2024/01/12 11:30:24;;;;;;;12.75;4.50;;;;;;;;;;6091155;23;20022;-79
2024/01/12 11:33:04;;;;;;;11.38;4.55;;;;;;;;;;6089808;23;20101;-79
2024/01/12 11:35:39;;;;;;;6.70;3.67;;;;;;;;;;6090313;23;20038;-77
2024/01/12 11:38:13;;;;;;;9.00;4.50;;;;;;;;;;6091099;23;20033;-79
2024/01/12 11:40:43;;;;;;;8.40;4.00;;;;;;;;;;6090741;23;20026;-80
2024/01/12 11:43:17;;;;;;;7.75;4.20;;;;;;;;;;6087662;23;20107;-80
2024/01/12 11:45:45;;;;;;;8.35;3.92;;;;;;;;;;6091209;23;20057;-79
2024/01/12 11:48:15;;;;;;;10.95;3.80;;;;;;;;;;6089653;23;20023;-80
2024/01/12 11:50:51;;;;;;;8.20;4.05;;;;;;;;;;6090065;23;20030;-80
2024/01/12 11:53:19;;;;;;;9.23;4.13;;;;;;;;;;6090541;23;20264;-80
2024/01/12 11:55:54;;;;;;;8.38;4.18;;;;;;;;;;6089537;23;20081;-80
2024/01/12 11:58:21;;;;;;;8.88;4.03;;;;;;;;;;6089782;23;20089;-79
2024/01/12 12:00:55;;;;;;;6.45;3.80;;;;;;;;;;6089737;23;20102;-79
2024/01/12 12:03:23;;;;;;;9.13;4.50;;;;;;;;;;6090661;23;20142;-79
2024/01/12 12:05:51;;;;;;;11.00;4.57;;;;;;;;;;6090308;23;20333;-81
2024/01/12 12:08:27;;;;;;;7.50;4.13;;;;;;;;;;6091206;23;20065;-80
2024/01/12 12:11:03;;;;;;;10.63;4.57;;;;;;;;;;6089114;23;20027;-80
2024/01/12 12:13:38;;;;;;;7.25;4.10;;;;;;;;;;6088390;23;20033;-80
2024/01/12 12:16:07;;;;;;;9.43;4.32;;;;;;;;;;6090413;23;20038;-80
2024/01/12 12:18:35;;;;;;;13.35;4.65;;;;;;;;;;6082903;23;20480;-80
2024/01/12 12:21:10;;;;;;;11.27;5.13;;;;;;;;;;6088087;23;20057;-79
2024/01/12 12:23:41;;;;;;;11.45;4.85;;;;;;;;;;6090488;23;20026;-80
2024/01/12 12:26:08;;;;;;;12.77;5.30;;;;;;;;;;6088840;23;20105;-80
2024/01/12 12:28:44;;;;;;;13.93;5.13;;;;;;;;;;6087782;23;20026;-80
2024/01/12 12:31:12;;;;;;;10.20;5.28;;;;;;;;;;6090435;23;20045;-81
2024/01/12 12:33:47;;;;;;;10.00;5.45;;;;;;;;;;6089182;23;20030;-80
2024/01/12 12:36:15;;;;;;;12.30;5.82;;;;;;;;;;6089628;23;20030;-80
2024/01/12 12:38:44;;;;;;;14.13;5.93;;;;;;;;;;6090386;23;20367;-80
2024/01/12 12:41:18;;;;;;;12.80;6.00;;;;;;;;;;6090602;23;20205;-80
2024/01/12 12:43:47;;;;;;;12.20;5.57;;;;;;;;;;6090344;23;20034;-81
2024/01/12 12:46:20;;;;;;;12.40;5.25;;;;;;;;;;6089131;23;20026;-80
2024/01/12 12:48:49;;;;;;;11.65;5.45;;;;;;;;;;6089631;23;20367;-81
2024/01/12 12:51:17;;;;;;;13.18;5.72;;;;;;;;;;6090119;23;20054;-81
2024/01/12 12:53:51;;;;;;;9.38;5.55;;;;;;;;;;6091197;23;20030;-80
2024/01/12 12:56:18;;;;;;;9.77;4.88;;;;;;;;;;6090111;23;20058;-81
2024/01/12 12:58:46;;;;;;;;;;;;;;;;;;6090845;23;20026;-80
2024/01/12 13:01:20;;;;;;;10.95;4.50;;;;;;;;;;6091129;23;19984;-80
2024/01/12 13:03:48;;;;;;;13.48;5.38;;;;;;;;;;6091414;23;20101;-80
2024/01/12 13:06:22;;;;;;;9.32;4.90;;;;;;;;;;6090950;23;20030;-80
2024/01/12 13:08:49;;;;;;;6.95;3.95;;;;;;;;;;6091163;23;20363;-81
2024/01/12 13:11:17;;;;;;;9.93;5.10;;;;;;;;;;6091363;23;20022;-80
2024/01/12 13:13:54;;;;;;;10.75;5.40;;;;;;;;;;6091220;23;20029;-79
2024/01/12 13:16:21;;;;;;;11.93;5.15;;;;;;;;;;6091006;23;20023;-80
2024/01/12 13:19:03;;;;;;;9.82;5.50;;;;;;;;;;6091096;23;20030;-80
2024/01/12 13:21:48;;;;;;;9.48;4.22;;;;;;;;;;6091833;23;20030;-80
2024/01/12 13:24:23;;;;;;;11.05;4.28;;;;;;;;;;6091804;23;20360;-80
2024/01/12 13:26:51;;;;;;;11.18;4.80;;;;;;;;;;6090034;23;20030;-80
2024/01/12 13:29:21;;;;;;;12.70;5.20;;;;;;;;;;6092895;23;20325;-80
2024/01/12 13:31:56;;;;;;;;;;;;;;;;;;6093346;23;20018;-80
2024/01/12 13:34:23;;;;;;;9.45;5.03;;;;;;;;;;6093396;23;19917;-80
2024/01/12 13:37:01;;;;;;;9.52;4.40;;;;;;;;;;6091015;23;20069;-80
2024/01/12 13:39:32;;;;;;;9.63;4.75;;;;;;;;;;6092752;23;20026;-80
2024/01/12 13:42:06;;;;;;;6.95;4.07;;;;;;;;;;6091938;23;20029;-80
2024/01/12 13:44:40;;;;;;;7.65;4.00;;;;;;;;;;6092478;23;20037;-80
2024/01/12 13:47:08;;;;;;;10.43;4.40;;;;;;;;;;6091824;23;20026;-80
2024/01/12 13:49:35;;;;;;;10.68;3.80;;;;;;;;;;6092719;23;20106;-80
2024/01/12 13:52:11;;;;;;;8.88;4.00;;;;;;;;;;6091166;23;20027;-80
2024/01/12 13:54:38;;;;;;;7.80;4.03;;;;;;;;;;6091830;23;20031;-80
2024/01/12 13:57:12;;;;;;;9.00;4.32;;;;;;;;;;6090922;23;20029;-80
2024/01/12 13:59:40;;;;;;;9.65;4.30;;;;;;;;;;6090442;23;20073;-80
2024/01/12 14:02:07;;;;;;;9.88;4.50;;;;;;;;;;6091871;23;20054;-80
2024/01/12 14:04:41;;;;;;;8.65;4.50;;;;;;;;;;6090594;23;20030;-80
2024/01/12 14:07:08;;;;;;;8.00;4.18;;;;;;;;;;6091079;23;20076;-80
2024/01/12 14:09:49;;;;;;;8.48;4.47;;;;;;;;;;6091138;23;20033;-80
2024/01/12 14:12:23;;;;;;;6.38;3.70;;;;;;;;;;6090463;23;20026;-80
2024/01/12 14:14:57;;;;;;;13.10;4.22;;;;;;;;;;6090464;23;20085;-80
2024/01/12 14:17:24;;;;;;;9.00;4.57;;;;;;;;;;6091869;23;20034;-80
2024/01/12 14:19:52;;;;;;;8.07;3.83;;;;;;;;;;6092181;23;20058;-80
2024/01/12 14:22:26;;;;;;;8.18;4.40;;;;;;;;;;6092416;23;20041;-80
2024/01/12 14:25:00;;;;;;;9.73;4.78;;;;;;;;;;6090682;23;20062;-80
2024/01/12 14:27:34;;;;;;;8.27;4.53;;;;;;;;;;6090843;23;20544;-80
2024/01/12 14:30:01;;;;;;;7.82;4.43;;;;;;;;;;6089257;23;20368;-80
2024/01/12 14:32:29;;;;;;;7.60;4.03;;;;;;;;;;6087886;23;20034;-79
2024/01/12 14:35:03;;;;;;;9.05;3.72;;;;;;;;;;6089438;23;20483;-78
2024/01/12 14:37:31;;;;;;;10.85;3.72;;;;;;;;;;6089069;23;20366;-80
2024/01/12 14:40:06;;;;;;;7.72;4.03;;;;;;;;;;6090054;23;20023;-80
2024/01/12 14:42:34;;;;;;;7.03;4.07;;;;;;;;;;6090795;23;20487;-80
2024/01/12 14:45:04;;;;;;;8.35;4.07;;;;;;;;;;6086519;23;20320;-80
2024/01/12 14:47:39;;;;;;;13.60;5.45;;;;;;;;;;6090369;23;20082;-80
2024/01/12 14:50:07;;;;;;;13.07;5.50;;;;;;;;;;6090787;23;20026;-79
2024/01/12 14:52:41;;;;;;;11.52;5.43;;;;;;;;;;6089354;23;20364;-80
2024/01/12 14:55:08;;;;;;;;;;;;;;;;;;6090344;23;20117;-80
2024/01/12 14:57:38;;;;;;;10.60;5.18;;;;;;;;;;6089663;23;19945;-79
2024/01/12 15:00:12;;;;;;;13.07;5.20;;;;;;;;;;6090046;23;20042;-80
2024/01/12 15:02:40;;;;;;;11.50;5.55;;;;;;;;;;6089335;23;20078;-80
2024/01/12 15:05:14;;;;;;;10.50;4.72;;;;;;;;;;6092139;23;20029;-80
2024/01/12 15:07:42;;;;;;;9.98;5.43;;;;;;;;;;6089806;23;20030;-80
2024/01/12 15:10:10;;;;;;;15.18;5.78;;;;;;;;;;6089568;23;20056;-80